sensor_id;sensor_type;location;lat;lon;timestamp;P1;durP1;ratioP1;P2;durP2;ratioP2
54823;SDS011;40724;53.196;5.980;2022-12-29T00:01:50;6.00;;;4.35;;
54823;SDS011;40724;53.196;5.980;2022-12-29T00:04:16;8.70;;;4.90;;
54823;SDS011;40724;53.196;5.980;2022-12-29T00:06:42;5.72;;;4.40;;
54823;SDS011;40724;53.196;5.980;2022-12-29T00:09:08;6.43;;;4.80;;
54823;SDS011;40724;53.196;5.980;2022-12-29T00:11:36;11.15;;;4.75;;
54823;SDS011;40724;53.196;5.980;2022-12-29T00:14:03;6.55;;;3.95;;
54823;SDS011;40724;53.196;5.980;2022-12-29T00:16:47;7.80;;;4.25;;
54823;SDS011;40724;53.196;5.980;2022-12-29T00:19:13;4.85;;;3.83;;
54823;SDS011;40724;53.196;5.980;2022-12-29T00:21:58;5.63;;;4.53;;
54823;SDS011;40724;53.196;5.980;2022-12-29T00:24:46;5.57;;;4.30;;
54823;SDS011;40724;53.196;5.980;2022-12-29T00:27:30;7.20;;;4.43;;
54823;SDS011;40724;53.196;5.980;2022-12-29T00:30:16;5.93;;;4.70;;
54823;SDS011;40724;53.196;5.980;2022-12-29T00:33:12;6.28;;;4.72;;
54823;SDS011;40724;53.196;5.980;2022-12-29T00:36:01;5.60;;;4.65;;
54823;SDS011;40724;53.196;5.980;2022-12-29T00:38:32;6.25;;;5.10;;
54823;SDS011;40724;53.196;5.980;2022-12-29T00:41:19;5.85;;;4.30;;
54823;SDS011;40724;53.196;5.980;2022-12-29T00:44:04;7.15;;;4.95;;
54823;SDS011;40724;53.196;5.980;2022-12-29T00:46:31;5.70;;;4.75;;
54823;SDS011;40724;53.196;5.980;2022-12-29T00:49:00;5.57;;;4.57;;
54823;SDS011;40724;53.196;5.980;2022-12-29T00:51:45;8.40;;;5.75;;
54823;SDS011;40724;53.196;5.980;2022-12-29T00:54:12;6.07;;;4.93;;
54823;SDS011;40724;53.196;5.980;2022-12-29T00:56:38;6.57;;;4.75;;
54823;SDS011;40724;53.196;5.980;2022-12-29T00:59:05;5.60;;;4.97;;
54823;SDS011;40724;53.196;5.980;2022-12-29T01:01:32;5.03;;;4.53;;
54823;SDS011;40724;53.196;5.980;2022-12-29T01:03:58;9.23;;;4.75;;
54823;SDS011;40724;53.196;5.980;2022-12-29T01:06:24;5.78;;;4.60;;
54823;SDS011;40724;53.196;5.980;2022-12-29T01:08:51;6.70;;;4.45;;
54823;SDS011;40724;53.196;5.980;2022-12-29T01:11:37;5.28;;;4.50;;
54823;SDS011;40724;53.196;5.980;2022-12-29T01:14:04;6.15;;;4.90;;
54823;SDS011;40724;53.196;5.980;2022-12-29T01:16:30;6.28;;;4.60;;
54823;SDS011;40724;53.196;5.980;2022-12-29T01:18:55;7.55;;;4.22;;
54823;SDS011;40724;53.196;5.980;2022-12-29T01:21:21;5.13;;;4.15;;
54823;SDS011;40724;53.196;5.980;2022-12-29T01:23:47;7.18;;;4.47;;
54823;SDS011;40724;53.196;5.980;2022-12-29T01:26:14;6.18;;;4.00;;
54823;SDS011;40724;53.196;5.980;2022-12-29T01:28:42;6.38;;;4.45;;
54823;SDS011;40724;53.196;5.980;2022-12-29T01:31:11;5.32;;;4.28;;
54823;SDS011;40724;53.196;5.980;2022-12-29T01:33:38;6.32;;;4.15;;
54823;SDS011;40724;53.196;5.980;2022-12-29T01:36:06;5.60;;;4.15;;
54823;SDS011;40724;53.196;5.980;2022-12-29T01:38:34;4.90;;;4.07;;
54823;SDS011;40724;53.196;5.980;2022-12-29T01:41:00;6.82;;;3.80;;
54823;SDS011;40724;53.196;5.980;2022-12-29T01:49:19;7.47;;;4.60;;
54823;SDS011;40724;53.196;5.980;2022-12-29T01:51:53;6.85;;;4.68;;
54823;SDS011;40724;53.196;5.980;2022-12-29T01:54:30;6.47;;;4.35;;
54823;SDS011;40724;53.196;5.980;2022-12-29T01:57:01;5.82;;;4.00;;
54823;SDS011;40724;53.196;5.980;2022-12-29T01:59:33;6.63;;;4.05;;
54823;SDS011;40724;53.196;5.980;2022-12-29T02:02:02;6.03;;;5.00;;
54823;SDS011;40724;53.196;5.980;2022-12-29T02:04:29;6.60;;;4.32;;
54823;SDS011;40724;53.196;5.980;2022-12-29T02:07:00;5.47;;;4.57;;
54823;SDS011;40724;53.196;5.980;2022-12-29T02:09:29;7.45;;;4.47;;
54823;SDS011;40724;53.196;5.980;2022-12-29T02:11:56;6.45;;;3.60;;
54823;SDS011;40724;53.196;5.980;2022-12-29T02:14:23;5.40;;;3.85;;
54823;SDS011;40724;53.196;5.980;2022-12-29T02:31:02;3.13;;;1.20;;
54823;SDS011;40724;53.196;5.980;2022-12-29T02:36:39;2.28;;;1.25;;
54823;SDS011;40724;53.196;5.980;2022-12-29T02:39:18;4.13;;;2.28;;
54823;SDS011;40724;53.196;5.980;2022-12-29T02:47:11;2.00;;;1.15;;
54823;SDS011;40724;53.196;5.980;2022-12-29T02:50:19;2.42;;;1.10;;
54823;SDS011;40724;53.196;5.980;2022-12-29T02:52:54;2.08;;;1.00;;
54823;SDS011;40724;53.196;5.980;2022-12-29T02:55:24;1.70;;;0.98;;
54823;SDS011;40724;53.196;5.980;2022-12-29T02:58:06;1.80;;;1.08;;
54823;SDS011;40724;53.196;5.980;2022-12-29T03:00:38;2.35;;;1.67;;
54823;SDS011;40724;53.196;5.980;2022-12-29T03:03:32;4.95;;;2.17;;
54823;SDS011;40724;53.196;5.980;2022-12-29T03:06:25;4.88;;;2.30;;
54823;SDS011;40724;53.196;5.980;2022-12-29T03:09:11;3.65;;;2.70;;
54823;SDS011;40724;53.196;5.980;2022-12-29T03:11:48;3.38;;;2.63;;
54823;SDS011;40724;53.196;5.980;2022-12-29T03:17:55;4.55;;;3.20;;
54823;SDS011;40724;53.196;5.980;2022-12-29T03:20:31;3.25;;;2.65;;
54823;SDS011;40724;53.196;5.980;2022-12-29T03:23:14;6.57;;;2.92;;
54823;SDS011;40724;53.196;5.980;2022-12-29T03:25:46;6.20;;;2.40;;
54823;SDS011;40724;53.196;5.980;2022-12-29T03:28:22;4.10;;;2.50;;
54823;SDS011;40724;53.196;5.980;2022-12-29T03:30:57;5.05;;;2.60;;
54823;SDS011;40724;53.196;5.980;2022-12-29T03:33:25;5.82;;;2.80;;
54823;SDS011;40724;53.196;5.980;2022-12-29T03:35:55;7.82;;;2.40;;
54823;SDS011;40724;53.196;5.980;2022-12-29T03:41:22;4.20;;;2.10;;
54823;SDS011;40724;53.196;5.980;2022-12-29T03:43:52;4.43;;;2.07;;
54823;SDS011;40724;53.196;5.980;2022-12-29T03:46:18;4.30;;;2.33;;
54823;SDS011;40724;53.196;5.980;2022-12-29T03:48:44;3.75;;;1.67;;
54823;SDS011;40724;53.196;5.980;2022-12-29T03:51:09;8.00;;;1.85;;
54823;SDS011;40724;53.196;5.980;2022-12-29T03:53:35;4.57;;;2.28;;
54823;SDS011;40724;53.196;5.980;2022-12-29T03:56:01;9.27;;;2.00;;
54823;SDS011;40724;53.196;5.980;2022-12-29T03:58:27;2.67;;;1.70;;
54823;SDS011;40724;53.196;5.980;2022-12-29T04:00:52;3.20;;;1.80;;
54823;SDS011;40724;53.196;5.980;2022-12-29T04:03:18;3.28;;;1.98;;
54823;SDS011;40724;53.196;5.980;2022-12-29T04:05:44;3.05;;;2.03;;
54823;SDS011;40724;53.196;5.980;2022-12-29T04:08:10;4.35;;;1.95;;
54823;SDS011;40724;53.196;5.980;2022-12-29T04:10:35;5.82;;;2.22;;
54823;SDS011;40724;53.196;5.980;2022-12-29T04:13:01;10.63;;;2.35;;
54823;SDS011;40724;53.196;5.980;2022-12-29T04:15:27;7.15;;;2.13;;
54823;SDS011;40724;53.196;5.980;2022-12-29T04:17:52;9.82;;;2.25;;
54823;SDS011;40724;53.196;5.980;2022-12-29T04:20:18;5.47;;;1.70;;
54823;SDS011;40724;53.196;5.980;2022-12-29T04:23:03;5.45;;;2.15;;
54823;SDS011;40724;53.196;5.980;2022-12-29T04:25:31;7.57;;;1.80;;
54823;SDS011;40724;53.196;5.980;2022-12-29T04:27:57;5.22;;;2.30;;
54823;SDS011;40724;53.196;5.980;2022-12-29T04:30:23;4.90;;;1.63;;
54823;SDS011;40724;53.196;5.980;2022-12-29T04:32:49;5.10;;;2.20;;
54823;SDS011;40724;53.196;5.980;2022-12-29T04:35:15;4.85;;;2.20;;
54823;SDS011;40724;53.196;5.980;2022-12-29T04:37:40;9.18;;;2.83;;
54823;SDS011;40724;53.196;5.980;2022-12-29T04:40:06;4.70;;;2.50;;
54823;SDS011;40724;53.196;5.980;2022-12-29T04:42:33;7.07;;;2.70;;
54823;SDS011;40724;53.196;5.980;2022-12-29T04:44:59;8.93;;;3.03;;
54823;SDS011;40724;53.196;5.980;2022-12-29T04:47:24;7.93;;;3.15;;
54823;SDS011;40724;53.196;5.980;2022-12-29T04:49:50;10.15;;;2.72;;
54823;SDS011;40724;53.196;5.980;2022-12-29T04:52:16;7.38;;;2.60;;
54823;SDS011;40724;53.196;5.980;2022-12-29T04:54:42;9.98;;;3.50;;
54823;SDS011;40724;53.196;5.980;2022-12-29T04:57:07;15.70;;;3.65;;
54823;SDS011;40724;53.196;5.980;2022-12-29T04:59:33;17.23;;;3.67;;
54823;SDS011;40724;53.196;5.980;2022-12-29T05:01:59;16.10;;;4.13;;
54823;SDS011;40724;53.196;5.980;2022-12-29T05:04:25;10.63;;;3.55;;
54823;SDS011;40724;53.196;5.980;2022-12-29T05:06:50;9.30;;;3.95;;
54823;SDS011;40724;53.196;5.980;2022-12-29T05:09:16;12.52;;;3.38;;
54823;SDS011;40724;53.196;5.980;2022-12-29T05:11:42;7.93;;;2.95;;
54823;SDS011;40724;53.196;5.980;2022-12-29T05:14:07;12.88;;;3.55;;
54823;SDS011;40724;53.196;5.980;2022-12-29T05:16:33;9.85;;;3.15;;
54823;SDS011;40724;53.196;5.980;2022-12-29T05:18:59;10.10;;;3.28;;
54823;SDS011;40724;53.196;5.980;2022-12-29T05:21:25;8.00;;;2.90;;
54823;SDS011;40724;53.196;5.980;2022-12-29T05:23:50;14.35;;;3.40;;
54823;SDS011;40724;53.196;5.980;2022-12-29T05:26:16;11.15;;;3.00;;
54823;SDS011;40724;53.196;5.980;2022-12-29T05:28:42;16.38;;;3.50;;
54823;SDS011;40724;53.196;5.980;2022-12-29T05:31:08;12.60;;;3.70;;
54823;SDS011;40724;53.196;5.980;2022-12-29T05:33:33;11.90;;;4.00;;
54823;SDS011;40724;53.196;5.980;2022-12-29T05:36:06;9.52;;;3.08;;
54823;SDS011;40724;53.196;5.980;2022-12-29T05:38:33;11.13;;;3.10;;
54823;SDS011;40724;53.196;5.980;2022-12-29T05:40:59;12.00;;;3.65;;
54823;SDS011;40724;53.196;5.980;2022-12-29T05:43:25;11.38;;;3.13;;
54823;SDS011;40724;53.196;5.980;2022-12-29T05:45:51;13.23;;;3.80;;
54823;SDS011;40724;53.196;5.980;2022-12-29T05:48:18;12.20;;;3.00;;
54823;SDS011;40724;53.196;5.980;2022-12-29T05:50:47;11.00;;;3.65;;
54823;SDS011;40724;53.196;5.980;2022-12-29T05:53:14;17.60;;;4.35;;
54823;SDS011;40724;53.196;5.980;2022-12-29T05:55:40;11.80;;;3.50;;
54823;SDS011;40724;53.196;5.980;2022-12-29T05:58:06;12.48;;;3.25;;
54823;SDS011;40724;53.196;5.980;2022-12-29T06:00:31;14.13;;;3.28;;
54823;SDS011;40724;53.196;5.980;2022-12-29T06:02:58;9.75;;;3.40;;
54823;SDS011;40724;53.196;5.980;2022-12-29T06:05:23;14.48;;;3.72;;
54823;SDS011;40724;53.196;5.980;2022-12-29T06:07:49;9.00;;;3.08;;
54823;SDS011;40724;53.196;5.980;2022-12-29T06:10:15;10.68;;;3.67;;
54823;SDS011;40724;53.196;5.980;2022-12-29T06:12:41;11.25;;;3.47;;
54823;SDS011;40724;53.196;5.980;2022-12-29T06:15:06;9.02;;;3.70;;
54823;SDS011;40724;53.196;5.980;2022-12-29T06:17:32;9.55;;;3.10;;
54823;SDS011;40724;53.196;5.980;2022-12-29T06:19:58;10.70;;;3.28;;
54823;SDS011;40724;53.196;5.980;2022-12-29T06:22:24;12.05;;;3.67;;
54823;SDS011;40724;53.196;5.980;2022-12-29T06:24:50;12.40;;;3.67;;
54823;SDS011;40724;53.196;5.980;2022-12-29T06:27:16;11.50;;;3.20;;
54823;SDS011;40724;53.196;5.980;2022-12-29T06:29:41;18.15;;;5.32;;
54823;SDS011;40724;53.196;5.980;2022-12-29T06:32:08;12.40;;;3.97;;
54823;SDS011;40724;53.196;5.980;2022-12-29T06:34:34;16.75;;;4.50;;
54823;SDS011;40724;53.196;5.980;2022-12-29T06:36:59;13.27;;;5.28;;
54823;SDS011;40724;53.196;5.980;2022-12-29T06:39:26;14.98;;;4.53;;
54823;SDS011;40724;53.196;5.980;2022-12-29T06:41:54;13.63;;;4.25;;
54823;SDS011;40724;53.196;5.980;2022-12-29T06:44:20;28.30;;;6.15;;
54823;SDS011;40724;53.196;5.980;2022-12-29T06:46:47;17.50;;;5.03;;
54823;SDS011;40724;53.196;5.980;2022-12-29T06:49:13;22.65;;;5.18;;
54823;SDS011;40724;53.196;5.980;2022-12-29T06:51:39;19.20;;;4.85;;
54823;SDS011;40724;53.196;5.980;2022-12-29T06:54:05;15.43;;;5.00;;
54823;SDS011;40724;53.196;5.980;2022-12-29T06:56:31;14.75;;;4.90;;
54823;SDS011;40724;53.196;5.980;2022-12-29T06:58:57;18.38;;;6.18;;
54823;SDS011;40724;53.196;5.980;2022-12-29T07:01:25;19.38;;;5.93;;
54823;SDS011;40724;53.196;5.980;2022-12-29T07:03:50;15.38;;;4.80;;
54823;SDS011;40724;53.196;5.980;2022-12-29T07:06:16;16.48;;;5.47;;
54823;SDS011;40724;53.196;5.980;2022-12-29T07:08:42;17.63;;;4.85;;
54823;SDS011;40724;53.196;5.980;2022-12-29T07:11:08;17.63;;;5.38;;
54823;SDS011;40724;53.196;5.980;2022-12-29T07:13:34;16.38;;;4.72;;
54823;SDS011;40724;53.196;5.980;2022-12-29T07:16:04;13.02;;;4.10;;
54823;SDS011;40724;53.196;5.980;2022-12-29T07:18:31;19.35;;;6.45;;
54823;SDS011;40724;53.196;5.980;2022-12-29T07:20:57;15.02;;;5.30;;
54823;SDS011;40724;53.196;5.980;2022-12-29T07:23:23;20.70;;;7.15;;
54823;SDS011;40724;53.196;5.980;2022-12-29T07:25:49;18.50;;;5.82;;
54823;SDS011;40724;53.196;5.980;2022-12-29T07:28:14;18.20;;;5.55;;
54823;SDS011;40724;53.196;5.980;2022-12-29T07:30:40;18.10;;;5.72;;
54823;SDS011;40724;53.196;5.980;2022-12-29T07:33:07;14.18;;;4.97;;
54823;SDS011;40724;53.196;5.980;2022-12-29T07:35:34;20.17;;;4.80;;
54823;SDS011;40724;53.196;5.980;2022-12-29T07:38:00;22.42;;;6.28;;
54823;SDS011;40724;53.196;5.980;2022-12-29T07:40:26;18.75;;;5.90;;
54823;SDS011;40724;53.196;5.980;2022-12-29T07:42:52;13.35;;;5.10;;
54823;SDS011;40724;53.196;5.980;2022-12-29T07:45:18;15.57;;;4.88;;
54823;SDS011;40724;53.196;5.980;2022-12-29T07:47:47;15.32;;;4.68;;
54823;SDS011;40724;53.196;5.980;2022-12-29T07:50:13;13.23;;;4.55;;
54823;SDS011;40724;53.196;5.980;2022-12-29T07:52:39;16.42;;;4.60;;
54823;SDS011;40724;53.196;5.980;2022-12-29T07:55:05;13.82;;;3.83;;
54823;SDS011;40724;53.196;5.980;2022-12-29T07:57:31;13.43;;;5.07;;
54823;SDS011;40724;53.196;5.980;2022-12-29T07:59:58;9.35;;;4.03;;
54823;SDS011;40724;53.196;5.980;2022-12-29T08:02:24;17.92;;;4.18;;
54823;SDS011;40724;53.196;5.980;2022-12-29T08:04:51;15.85;;;5.05;;
54823;SDS011;40724;53.196;5.980;2022-12-29T08:07:17;13.35;;;3.67;;
54823;SDS011;40724;53.196;5.980;2022-12-29T08:09:43;18.58;;;5.82;;
54823;SDS011;40724;53.196;5.980;2022-12-29T08:12:10;8.90;;;3.92;;
54823;SDS011;40724;53.196;5.980;2022-12-29T08:14:36;17.27;;;5.05;;
54823;SDS011;40724;53.196;5.980;2022-12-29T08:17:02;20.90;;;5.35;;
54823;SDS011;40724;53.196;5.980;2022-12-29T08:19:28;14.02;;;4.43;;
54823;SDS011;40724;53.196;5.980;2022-12-29T08:21:56;18.65;;;4.68;;
54823;SDS011;40724;53.196;5.980;2022-12-29T08:24:22;31.27;;;5.35;;
54823;SDS011;40724;53.196;5.980;2022-12-29T08:26:48;16.60;;;5.32;;
54823;SDS011;40724;53.196;5.980;2022-12-29T08:29:14;12.48;;;5.25;;
54823;SDS011;40724;53.196;5.980;2022-12-29T08:31:41;23.77;;;5.35;;
54823;SDS011;40724;53.196;5.980;2022-12-29T08:34:07;13.48;;;4.97;;
54823;SDS011;40724;53.196;5.980;2022-12-29T08:36:33;20.30;;;5.20;;
54823;SDS011;40724;53.196;5.980;2022-12-29T08:38:59;22.60;;;6.10;;
54823;SDS011;40724;53.196;5.980;2022-12-29T08:41:25;11.63;;;4.50;;
54823;SDS011;40724;53.196;5.980;2022-12-29T08:43:51;13.60;;;5.05;;
54823;SDS011;40724;53.196;5.980;2022-12-29T08:46:18;12.00;;;4.05;;
54823;SDS011;40724;53.196;5.980;2022-12-29T08:48:44;16.67;;;4.43;;
54823;SDS011;40724;53.196;5.980;2022-12-29T08:51:10;19.38;;;5.07;;
54823;SDS011;40724;53.196;5.980;2022-12-29T08:53:37;15.15;;;4.82;;
54823;SDS011;40724;53.196;5.980;2022-12-29T08:56:03;17.85;;;5.30;;
54823;SDS011;40724;53.196;5.980;2022-12-29T08:58:30;19.88;;;6.07;;
54823;SDS011;40724;53.196;5.980;2022-12-29T09:00:56;25.75;;;6.30;;
54823;SDS011;40724;53.196;5.980;2022-12-29T09:03:23;20.88;;;5.85;;
54823;SDS011;40724;53.196;5.980;2022-12-29T09:05:50;15.50;;;5.85;;
54823;SDS011;40724;53.196;5.980;2022-12-29T09:08:16;19.95;;;5.75;;
54823;SDS011;40724;53.196;5.980;2022-12-29T09:10:43;15.25;;;5.15;;
54823;SDS011;40724;53.196;5.980;2022-12-29T09:13:10;15.98;;;5.35;;
54823;SDS011;40724;53.196;5.980;2022-12-29T09:15:37;15.48;;;5.63;;
54823;SDS011;40724;53.196;5.980;2022-12-29T09:18:03;20.63;;;5.25;;
54823;SDS011;40724;53.196;5.980;2022-12-29T09:20:29;24.92;;;6.32;;
54823;SDS011;40724;53.196;5.980;2022-12-29T09:22:55;21.58;;;6.60;;
54823;SDS011;40724;53.196;5.980;2022-12-29T09:25:21;16.98;;;6.43;;
54823;SDS011;40724;53.196;5.980;2022-12-29T09:27:50;13.90;;;5.97;;
54823;SDS011;40724;53.196;5.980;2022-12-29T09:30:18;15.70;;;5.15;;
54823;SDS011;40724;53.196;5.980;2022-12-29T09:32:45;22.63;;;5.13;;
54823;SDS011;40724;53.196;5.980;2022-12-29T09:35:12;21.92;;;5.20;;
54823;SDS011;40724;53.196;5.980;2022-12-29T09:37:38;14.15;;;4.05;;
54823;SDS011;40724;53.196;5.980;2022-12-29T09:40:05;12.88;;;4.03;;
54823;SDS011;40724;53.196;5.980;2022-12-29T09:42:38;8.02;;;3.60;;
54823;SDS011;40724;53.196;5.980;2022-12-29T09:45:35;13.02;;;4.00;;
54823;SDS011;40724;53.196;5.980;2022-12-29T09:48:03;14.10;;;4.13;;
54823;SDS011;40724;53.196;5.980;2022-12-29T09:50:30;12.38;;;4.35;;
54823;SDS011;40724;53.196;5.980;2022-12-29T09:53:02;18.10;;;4.80;;
54823;SDS011;40724;53.196;5.980;2022-12-29T09:55:34;12.10;;;4.22;;
54823;SDS011;40724;53.196;5.980;2022-12-29T09:58:15;18.23;;;4.55;;
54823;SDS011;40724;53.196;5.980;2022-12-29T10:03:16;11.63;;;3.97;;
54823;SDS011;40724;53.196;5.980;2022-12-29T10:05:55;10.07;;;3.75;;
54823;SDS011;40724;53.196;5.980;2022-12-29T10:08:44;11.02;;;4.40;;
54823;SDS011;40724;53.196;5.980;2022-12-29T10:16:20;10.68;;;4.90;;
54823;SDS011;40724;53.196;5.980;2022-12-29T10:23:54;14.82;;;4.70;;
54823;SDS011;40724;53.196;5.980;2022-12-29T10:26:23;12.52;;;5.35;;
54823;SDS011;40724;53.196;5.980;2022-12-29T10:29:06;18.65;;;7.88;;
54823;SDS011;40724;53.196;5.980;2022-12-29T10:31:36;17.20;;;6.10;;
54823;SDS011;40724;53.196;5.980;2022-12-29T10:34:05;16.02;;;6.55;;
54823;SDS011;40724;53.196;5.980;2022-12-29T10:36:34;15.43;;;5.53;;
54823;SDS011;40724;53.196;5.980;2022-12-29T10:39:06;22.73;;;7.35;;
54823;SDS011;40724;53.196;5.980;2022-12-29T10:41:41;27.25;;;6.90;;
54823;SDS011;40724;53.196;5.980;2022-12-29T10:44:12;22.20;;;7.97;;
54823;SDS011;40724;53.196;5.980;2022-12-29T10:46:39;25.75;;;7.63;;
54823;SDS011;40724;53.196;5.980;2022-12-29T10:49:06;24.48;;;7.57;;
54823;SDS011;40724;53.196;5.980;2022-12-29T10:51:37;25.98;;;7.80;;
54823;SDS011;40724;53.196;5.980;2022-12-29T10:56:40;26.50;;;7.00;;
54823;SDS011;40724;53.196;5.980;2022-12-29T10:59:23;24.48;;;6.50;;
54823;SDS011;40724;53.196;5.980;2022-12-29T11:01:56;24.38;;;12.25;;
54823;SDS011;40724;53.196;5.980;2022-12-29T11:07:05;18.65;;;6.45;;
54823;SDS011;40724;53.196;5.980;2022-12-29T11:09:34;24.20;;;6.57;;
54823;SDS011;40724;53.196;5.980;2022-12-29T11:12:17;10.15;;;5.47;;
54823;SDS011;40724;53.196;5.980;2022-12-29T11:14:44;17.40;;;5.45;;
54823;SDS011;40724;53.196;5.980;2022-12-29T11:17:14;24.20;;;7.57;;
54823;SDS011;40724;53.196;5.980;2022-12-29T11:19:41;16.88;;;4.90;;
54823;SDS011;40724;53.196;5.980;2022-12-29T11:24:43;14.35;;;5.18;;
54823;SDS011;40724;53.196;5.980;2022-12-29T11:27:23;13.95;;;5.18;;
54823;SDS011;40724;53.196;5.980;2022-12-29T11:29:50;16.85;;;5.00;;
54823;SDS011;40724;53.196;5.980;2022-12-29T11:32:18;15.50;;;5.68;;
54823;SDS011;40724;53.196;5.980;2022-12-29T11:34:45;17.30;;;4.15;;
54823;SDS011;40724;53.196;5.980;2022-12-29T11:39:38;16.48;;;4.88;;
54823;SDS011;40724;53.196;5.980;2022-12-29T11:42:12;18.92;;;5.28;;
54823;SDS011;40724;53.196;5.980;2022-12-29T11:44:41;14.23;;;5.40;;
54823;SDS011;40724;53.196;5.980;2022-12-29T11:47:08;16.98;;;5.15;;
54823;SDS011;40724;53.196;5.980;2022-12-29T11:49:38;10.45;;;4.75;;
54823;SDS011;40724;53.196;5.980;2022-12-29T11:52:04;18.23;;;5.18;;
54823;SDS011;40724;53.196;5.980;2022-12-29T11:54:31;13.60;;;5.05;;
54823;SDS011;40724;53.196;5.980;2022-12-29T11:57:07;18.08;;;4.55;;
54823;SDS011;40724;53.196;5.980;2022-12-29T11:59:36;9.70;;;3.75;;
54823;SDS011;40724;53.196;5.980;2022-12-29T12:02:10;14.48;;;4.07;;
54823;SDS011;40724;53.196;5.980;2022-12-29T12:04:39;12.45;;;3.28;;
54823;SDS011;40724;53.196;5.980;2022-12-29T12:07:12;14.05;;;4.50;;
54823;SDS011;40724;53.196;5.980;2022-12-29T12:09:50;9.93;;;2.95;;
54823;SDS011;40724;53.196;5.980;2022-12-29T12:12:28;12.52;;;4.30;;
54823;SDS011;40724;53.196;5.980;2022-12-29T12:14:56;8.82;;;2.47;;
54823;SDS011;40724;53.196;5.980;2022-12-29T12:17:29;9.75;;;3.83;;
54823;SDS011;40724;53.196;5.980;2022-12-29T12:20:20;8.50;;;2.80;;
54823;SDS011;40724;53.196;5.980;2022-12-29T12:22:59;6.68;;;2.70;;
54823;SDS011;40724;53.196;5.980;2022-12-29T12:25:52;8.02;;;2.58;;
54823;SDS011;40724;53.196;5.980;2022-12-29T12:28:28;8.85;;;3.00;;
54823;SDS011;40724;53.196;5.980;2022-12-29T12:33:53;9.77;;;3.80;;
54823;SDS011;40724;53.196;5.980;2022-12-29T12:39:12;12.57;;;3.20;;
54823;SDS011;40724;53.196;5.980;2022-12-29T12:42:26;6.43;;;3.15;;
54823;SDS011;40724;53.196;5.980;2022-12-29T12:50:19;7.45;;;2.65;;
54823;SDS011;40724;53.196;5.980;2022-12-29T13:23:41;10.50;;;2.95;;
54823;SDS011;40724;53.196;5.980;2022-12-29T13:31:55;7.40;;;2.55;;
54823;SDS011;40724;53.196;5.980;2022-12-29T13:34:37;8.50;;;2.53;;
54823;SDS011;40724;53.196;5.980;2022-12-29T13:37:10;7.30;;;3.67;;
54823;SDS011;40724;53.196;5.980;2022-12-29T13:39:38;7.97;;;3.22;;
54823;SDS011;40724;53.196;5.980;2022-12-29T13:42:06;12.75;;;2.85;;
54823;SDS011;40724;53.196;5.980;2022-12-29T13:44:37;8.38;;;2.70;;
54823;SDS011;40724;53.196;5.980;2022-12-29T13:47:06;10.00;;;2.95;;
54823;SDS011;40724;53.196;5.980;2022-12-29T13:49:39;10.77;;;2.63;;
54823;SDS011;40724;53.196;5.980;2022-12-29T13:52:39;8.65;;;2.75;;
54823;SDS011;40724;53.196;5.980;2022-12-29T13:55:03;5.83;;;2.53;;
54823;SDS011;40724;53.196;5.980;2022-12-29T13:57:41;6.78;;;3.03;;
54823;SDS011;40724;53.196;5.980;2022-12-29T14:00:18;10.90;;;2.83;;
54823;SDS011;40724;53.196;5.980;2022-12-29T14:07:41;12.25;;;3.28;;
54823;SDS011;40724;53.196;5.980;2022-12-29T14:10:13;7.53;;;3.05;;
54823;SDS011;40724;53.196;5.980;2022-12-29T14:13:31;11.50;;;3.60;;
54823;SDS011;40724;53.196;5.980;2022-12-29T14:15:51;13.13;;;2.83;;
54823;SDS011;40724;53.196;5.980;2022-12-29T14:18:19;6.70;;;2.42;;
54823;SDS011;40724;53.196;5.980;2022-12-29T14:23:16;9.40;;;2.83;;
54823;SDS011;40724;53.196;5.980;2022-12-29T14:25:54;13.10;;;3.58;;
54823;SDS011;40724;53.196;5.980;2022-12-29T14:28:27;8.32;;;2.65;;
54823;SDS011;40724;53.196;5.980;2022-12-29T14:31:01;13.73;;;3.40;;
54823;SDS011;40724;53.196;5.980;2022-12-29T14:33:28;12.98;;;4.00;;
54823;SDS011;40724;53.196;5.980;2022-12-29T14:35:55;12.77;;;3.83;;
54823;SDS011;40724;53.196;5.980;2022-12-29T14:38:22;8.57;;;3.20;;
54823;SDS011;40724;53.196;5.980;2022-12-29T14:40:49;11.65;;;3.03;;
54823;SDS011;40724;53.196;5.980;2022-12-29T14:43:25;19.40;;;4.25;;
54823;SDS011;40724;53.196;5.980;2022-12-29T14:45:54;11.95;;;3.55;;
54823;SDS011;40724;53.196;5.980;2022-12-29T14:48:32;12.63;;;4.10;;
54823;SDS011;40724;53.196;5.980;2022-12-29T14:50:59;13.90;;;4.05;;
54823;SDS011;40724;53.196;5.980;2022-12-29T14:56:11;10.32;;;3.22;;
54823;SDS011;40724;53.196;5.980;2022-12-29T14:58:54;7.53;;;3.17;;
54823;SDS011;40724;53.196;5.980;2022-12-29T15:04:00;11.02;;;3.17;;
54823;SDS011;40724;53.196;5.980;2022-12-29T15:06:29;13.63;;;3.60;;
54823;SDS011;40724;53.196;5.980;2022-12-29T15:11:52;13.70;;;3.70;;
54823;SDS011;40724;53.196;5.980;2022-12-29T15:17:01;7.95;;;3.17;;
54823;SDS011;40724;53.196;5.980;2022-12-29T15:19:27;16.02;;;4.28;;
54823;SDS011;40724;53.196;5.980;2022-12-29T15:21:54;11.35;;;3.92;;
54823;SDS011;40724;53.196;5.980;2022-12-29T15:24:21;15.27;;;3.70;;
54823;SDS011;40724;53.196;5.980;2022-12-29T15:26:51;12.63;;;3.83;;
54823;SDS011;40724;53.196;5.980;2022-12-29T15:29:31;7.25;;;2.83;;
54823;SDS011;40724;53.196;5.980;2022-12-29T15:32:02;13.18;;;3.85;;
54823;SDS011;40724;53.196;5.980;2022-12-29T15:34:36;9.02;;;3.15;;
54823;SDS011;40724;53.196;5.980;2022-12-29T15:37:06;12.48;;;3.75;;
54823;SDS011;40724;53.196;5.980;2022-12-29T15:39:32;10.60;;;3.15;;
54823;SDS011;40724;53.196;5.980;2022-12-29T15:44:44;9.52;;;2.83;;
54823;SDS011;40724;53.196;5.980;2022-12-29T15:47:28;8.13;;;2.83;;
54823;SDS011;40724;53.196;5.980;2022-12-29T15:50:17;13.82;;;4.20;;
54823;SDS011;40724;53.196;5.980;2022-12-29T15:52:46;11.60;;;2.63;;
54823;SDS011;40724;53.196;5.980;2022-12-29T15:55:19;6.70;;;2.17;;
54823;SDS011;40724;53.196;5.980;2022-12-29T15:57:46;5.88;;;2.28;;
54823;SDS011;40724;53.196;5.980;2022-12-29T16:00:23;6.93;;;2.45;;
54823;SDS011;40724;53.196;5.980;2022-12-29T16:02:50;6.30;;;1.90;;
54823;SDS011;40724;53.196;5.980;2022-12-29T16:05:17;7.60;;;2.00;;
54823;SDS011;40724;53.196;5.980;2022-12-29T16:07:57;4.68;;;1.67;;
54823;SDS011;40724;53.196;5.980;2022-12-29T16:10:36;7.43;;;2.75;;
54823;SDS011;40724;53.196;5.980;2022-12-29T16:15:37;5.90;;;2.10;;
54823;SDS011;40724;53.196;5.980;2022-12-29T16:18:03;4.95;;;2.13;;
54823;SDS011;40724;53.196;5.980;2022-12-29T16:20:40;11.13;;;3.10;;
54823;SDS011;40724;53.196;5.980;2022-12-29T16:23:12;6.10;;;2.03;;
54823;SDS011;40724;53.196;5.980;2022-12-29T16:25:41;3.80;;;2.10;;
54823;SDS011;40724;53.196;5.980;2022-12-29T16:31:04;5.83;;;1.77;;
54823;SDS011;40724;53.196;5.980;2022-12-29T16:33:44;5.38;;;1.90;;
54823;SDS011;40724;53.196;5.980;2022-12-29T16:36:31;11.98;;;2.15;;
54823;SDS011;40724;53.196;5.980;2022-12-29T16:41:42;7.97;;;2.60;;
54823;SDS011;40724;53.196;5.980;2022-12-29T16:44:12;6.32;;;2.22;;
54823;SDS011;40724;53.196;5.980;2022-12-29T16:46:55;16.00;;;3.72;;
54823;SDS011;40724;53.196;5.980;2022-12-29T16:49:23;7.63;;;2.70;;
54823;SDS011;40724;53.196;5.980;2022-12-29T16:51:51;6.78;;;2.22;;
54823;SDS011;40724;53.196;5.980;2022-12-29T16:54:24;9.52;;;3.33;;
54823;SDS011;40724;53.196;5.980;2022-12-29T16:56:50;11.15;;;3.10;;
54823;SDS011;40724;53.196;5.980;2022-12-29T16:59:21;12.43;;;4.20;;
54823;SDS011;40724;53.196;5.980;2022-12-29T17:01:49;8.70;;;3.13;;
54823;SDS011;40724;53.196;5.980;2022-12-29T17:04:15;14.38;;;3.45;;
54823;SDS011;40724;53.196;5.980;2022-12-29T17:06:41;13.45;;;3.60;;
54823;SDS011;40724;53.196;5.980;2022-12-29T17:12:03;15.25;;;4.65;;
54823;SDS011;40724;53.196;5.980;2022-12-29T17:17:08;18.77;;;5.60;;
54823;SDS011;40724;53.196;5.980;2022-12-29T17:19:36;16.58;;;6.05;;